Litchfield, OH (44253)

7:14 PM EST on March 03, 2015 (GMT -0500)
Crow Corner | Change Station
CLOSE
Current Station
Personal Weather Station
Location: Litchfield, OH
Elevation: 889 ft
Nearby Weather Stations

Elev 889 ft 41.19 °N, 82.06 °W | Updated 8 minutes ago

Overcast
Overcast
41.0 °F
Feels Like 34 °F
N
11.9
Wind Variable Wind from SW

Today
High -- | Low -- °F
--% Chance of Precip.
Yesterday
High -- | Low -- °F
Precip. -- in
6:59 AM 6:21 PM
Waxing Gibbous, 97% visible
Pressure 29.70 in
Visibility 6.0 miles
Clouds Overcast 800 ft
Windchill 34 °F
Dew Point 40 °F
Humidity 96%
Rainfall 0.40 in
Snow Depth Not available.
UV 0 out of 12
Pollen .40 out of 12
Air Quality Not available.
Flu Activity Not available.
METAR KLPR 032353Z AUTO 25017G25KT 6SM BR OVC008 04/03 A2967 RMK AO2 PK WND 25032/2301 RAE46 CIG 007V012 SLP056 P0006 60033 I6002 T00390028 10050 21017 53005 TSNO

More Conditions Fewer Conditions

Pressure 29.70 in
Visibility 6.0 miles
Clouds Overcast 800 ft
Windchill 34 °F
Dew Point 40 °F
Humidity 96%
Rainfall 0.40 in
Snow Depth Not available.
UV 0 out of 12
Pollen .40 out of 12
Air Quality Not available.
Flu Activity Not available.
METAR KLPR 032353Z AUTO 25017G25KT 6SM BR OVC008 04/03 A2967 RMK AO2 PK WND 25032/2301 RAE46 CIG 007V012 SLP056 P0006 60033 I6002 T00390028 10050 21017 53005 TSNO

More Conditions Fewer Conditions

10-Day Weather Forecast

Almanac

Astronomy

Mar. 03, 2015 Rise Set
Actual Time
Civil Twilight
Nautical Twilight
Astronomical Twilight
Moon
Length of Visible Light
Length of Day
Tomorrow will be .
, % of the Moon is Illuminated

Today's Extremes

State Highs State Lows

Community

WunderPhotos

Upload Photos

1,802,330 photos uploaded!

WunderBlogs® & News

Nearby

Air Quality

  Air Quality AQ Index Pollutant
Not available.

Snow Depth

Station Depth Elevation

Earthquake Activity

City Distance Mag. Time & Date
Minimum magnitude displayed is 2.5.

Coastal Water Temperatures

Place Temperature

Nearby Weather Stations